createdAt,value
2023-03-17T00:00:21.084Z,8.86
2023-03-17T00:01:21.339Z,8.86
2023-03-17T00:02:21.124Z,8.86
2023-03-17T00:03:21.409Z,8.87
2023-03-17T00:04:41.172Z,8.87
2023-03-17T00:05:21.337Z,8.86
2023-03-17T00:06:21.099Z,8.84
2023-03-17T00:07:21.358Z,8.86
2023-03-17T00:08:21.104Z,8.86
2023-03-17T00:09:20.888Z,8.84
2023-03-17T00:10:21.095Z,8.84
2023-03-17T00:11:20.856Z,8.86
2023-03-17T00:12:21.135Z,8.83
2023-03-17T00:13:20.895Z,8.80
2023-03-17T00:14:41.145Z,8.81
2023-03-17T00:15:20.883Z,8.80
2023-03-17T00:16:21.176Z,8.81
2023-03-17T00:17:20.936Z,8.83
2023-03-17T00:18:21.163Z,8.81
2023-03-17T00:19:20.915Z,8.81
2023-03-17T00:20:21.152Z,8.79
2023-03-17T00:21:22.384Z,8.77
2023-03-17T00:22:21.704Z,8.76
2023-03-17T00:23:22.465Z,8.76
2023-03-17T00:24:40.788Z,8.74
2023-03-17T00:25:22.491Z,8.73
2023-03-17T00:26:21.502Z,8.71
2023-03-17T00:27:22.565Z,8.68
2023-03-17T00:28:21.698Z,8.65
2023-03-17T00:29:20.784Z,8.62
2023-03-17T00:30:22.471Z,8.61
2023-03-17T00:31:22.313Z,8.59
2023-03-17T00:32:21.974Z,8.58
2023-03-17T00:33:21.696Z,8.56
2023-03-17T00:34:40.754Z,8.55
2023-03-17T00:35:22.477Z,8.53
2023-03-17T00:36:21.477Z,8.52
2023-03-17T00:37:22.103Z,8.53
2023-03-17T00:38:22.375Z,8.52
2023-03-17T00:39:22.171Z,8.52
2023-03-17T00:40:22.457Z,8.48
2023-03-17T00:41:22.240Z,8.52
2023-03-17T00:42:22.007Z,8.50
2023-03-17T00:43:22.308Z,8.48
2023-03-17T00:44:40.636Z,8.48
2023-03-17T00:45:22.350Z,8.48
2023-03-17T00:46:21.384Z,8.44
2023-03-17T00:47:20.760Z,8.43
2023-03-17T00:48:22.375Z,8.43
2023-03-17T00:50:11.981Z,8.43
2023-03-17T00:51:11.682Z,8.40
2023-03-17T00:52:12.021Z,8.38
2023-03-17T00:53:11.686Z,8.41
2023-03-17T00:54:11.939Z,8.41
2023-03-17T00:55:11.680Z,8.43
2023-03-17T00:56:11.964Z,8.43
2023-03-17T00:57:11.725Z,8.43
2023-03-17T00:58:11.484Z,8.41
2023-03-17T00:59:33.397Z,8.41
2023-03-17T01:00:11.692Z,8.44
2023-03-17T01:01:11.484Z,8.44
2023-03-17T01:02:11.748Z,8.43
2023-03-17T01:03:11.436Z,8.41
2023-03-17T01:04:11.712Z,8.40
2023-03-17T01:05:11.441Z,8.38
2023-03-17T01:06:11.712Z,8.38
2023-03-17T01:07:11.437Z,8.37
2023-03-17T01:08:11.675Z,8.34
2023-03-17T01:09:32.162Z,8.33
2023-03-17T01:10:11.723Z,8.30
2023-03-17T01:11:11.469Z,8.34
2023-03-17T01:12:11.728Z,8.33
2023-03-17T01:13:11.473Z,8.30
2023-03-17T01:14:11.737Z,8.29
2023-03-17T01:15:11.477Z,8.29
2023-03-17T01:16:11.796Z,8.28
2023-03-17T01:17:11.477Z,8.25
2023-03-17T01:18:11.240Z,8.23
2023-03-17T01:19:32.247Z,8.22
2023-03-17T01:20:11.289Z,8.20
2023-03-17T01:21:11.532Z,8.18
2023-03-17T01:22:11.289Z,8.16
2023-03-17T01:23:11.522Z,8.12
2023-03-17T01:24:11.287Z,8.11
2023-03-17T01:25:11.508Z,8.08
2023-03-17T01:26:11.261Z,8.07
2023-03-17T01:27:11.473Z,8.02
2023-03-17T01:28:11.232Z,8.01
2023-03-17T01:29:32.512Z,8.00
2023-03-17T01:30:11.329Z,7.98
2023-03-17T01:31:11.597Z,7.95
2023-03-17T01:32:11.368Z,7.97
2023-03-17T01:33:11.139Z,7.93
2023-03-17T01:34:11.398Z,7.95
2023-03-17T01:35:11.131Z,7.93
2023-03-17T01:36:11.501Z,7.95
2023-03-17T01:37:11.145Z,7.92
2023-03-17T01:38:11.417Z,7.92
2023-03-17T01:39:31.202Z,7.92
2023-03-17T01:40:11.520Z,7.92
2023-03-17T01:41:11.319Z,7.90
2023-03-17T01:42:12.475Z,7.89
2023-03-17T01:43:11.729Z,7.89
2023-03-17T01:44:12.485Z,7.86
2023-03-17T01:45:12.746Z,7.87
2023-03-17T01:46:11.122Z,7.87
2023-03-17T01:47:12.798Z,7.86
2023-03-17T01:48:11.856Z,7.86
2023-03-17T01:49:31.415Z,7.86
2023-03-17T01:50:12.627Z,7.85
2023-03-17T01:51:12.369Z,7.83
2023-03-17T01:52:11.218Z,7.82
2023-03-17T01:53:10.975Z,7.79
2023-03-17T01:54:11.237Z,7.77
2023-03-17T01:55:11.009Z,7.74
2023-03-17T01:56:12.711Z,7.69
2023-03-17T01:57:11.038Z,7.68
2023-03-17T01:58:12.705Z,7.67
2023-03-17T01:59:31.019Z,7.61
2023-03-17T02:00:11.294Z,7.60
2023-03-17T02:01:11.769Z,7.58
2023-03-17T02:02:12.724Z,7.57
2023-03-17T02:03:11.052Z,7.52
2023-03-17T02:04:10.843Z,7.50
2023-03-17T02:05:12.520Z,7.49
2023-03-17T02:06:10.832Z,7.49
2023-03-17T02:07:11.131Z,7.49
2023-03-17T02:08:11.809Z,7.48
2023-03-17T02:09:32.131Z,7.49
2023-03-17T02:10:10.888Z,7.48
2023-03-17T02:11:11.120Z,7.49
2023-03-17T02:12:10.901Z,7.49
2023-03-17T02:13:11.177Z,7.48
2023-03-17T02:14:10.921Z,7.48
2023-03-17T02:15:10.663Z,7.48
2023-03-17T02:16:10.928Z,7.48
2023-03-17T02:17:10.653Z,7.48
2023-03-17T02:18:10.901Z,7.46
2023-03-17T02:19:31.188Z,7.48
2023-03-17T02:20:10.935Z,7.46
2023-03-17T02:21:10.685Z,7.43
2023-03-17T02:22:10.941Z,7.45
2023-03-17T02:23:11.692Z,7.45
2023-03-17T02:24:10.952Z,7.45
2023-03-17T02:25:10.711Z,7.42
2023-03-17T02:26:10.953Z,7.43
2023-03-17T02:27:10.704Z,7.43
2023-03-17T02:28:10.956Z,7.42
2023-03-17T02:29:30.734Z,7.42
2023-03-17T02:30:10.980Z,7.40
2023-03-17T02:31:10.807Z,7.42
2023-03-17T02:32:10.501Z,7.40
2023-03-17T02:33:10.753Z,7.40
2023-03-17T02:34:10.495Z,7.40
2023-03-17T02:35:10.734Z,7.40
2023-03-17T02:36:10.555Z,7.40
2023-03-17T02:37:10.794Z,7.42
2023-03-17T02:38:10.580Z,7.45
2023-03-17T02:39:30.862Z,7.45
2023-03-17T02:40:10.588Z,7.45
2023-03-17T02:41:10.847Z,7.46
2023-03-17T02:42:10.622Z,7.46
2023-03-17T02:43:10.834Z,7.49
2023-03-17T02:44:10.574Z,7.49
2023-03-17T02:45:10.844Z,7.49
2023-03-17T02:46:10.778Z,7.49
2023-03-17T02:47:10.344Z,7.48
2023-03-17T02:48:10.610Z,7.50
2023-03-17T02:49:30.504Z,7.52
2023-03-17T02:50:10.582Z,7.52
2023-03-17T02:51:10.336Z,7.52
2023-03-17T02:52:10.622Z,7.52
2023-03-17T02:53:10.354Z,7.50
2023-03-17T02:54:10.591Z,7.52
2023-03-17T02:55:10.354Z,7.49
2023-03-17T02:56:10.598Z,7.49
2023-03-17T02:57:10.326Z,7.49
2023-03-17T02:58:10.596Z,7.50
2023-03-17T02:59:30.362Z,7.50
2023-03-17T03:00:10.606Z,7.50
2023-03-17T03:01:10.392Z,7.50
2023-03-17T03:02:10.673Z,7.53
2023-03-17T03:03:10.442Z,7.53
2023-03-17T03:04:10.646Z,7.53
2023-03-17T03:05:10.392Z,7.53
2023-03-17T03:06:10.147Z,7.57
2023-03-17T03:07:10.376Z,7.57
2023-03-17T03:08:10.134Z,7.58
2023-03-17T03:09:30.394Z,7.58
2023-03-17T03:10:10.133Z,7.58
2023-03-17T03:11:10.363Z,7.58
2023-03-17T03:12:10.204Z,7.57
2023-03-17T03:13:10.362Z,7.58
2023-03-17T03:14:10.117Z,7.57
2023-03-17T03:15:10.375Z,7.57
2023-03-17T03:16:10.201Z,7.57
2023-03-17T03:17:10.455Z,7.60
2023-03-17T03:18:10.265Z,7.60
2023-03-17T03:19:30.526Z,7.61
2023-03-17T03:20:11.274Z,7.60
2023-03-17T03:21:10.086Z,7.58
2023-03-17T03:22:10.402Z,7.58
2023-03-17T03:23:10.141Z,7.58
2023-03-17T03:24:10.453Z,7.58
2023-03-17T03:25:10.210Z,7.57
2023-03-17T03:26:10.015Z,7.57
2023-03-17T03:27:10.266Z,7.55
2023-03-17T03:28:10.091Z,7.55
2023-03-17T03:29:30.346Z,7.55
2023-03-17T03:30:10.098Z,7.53
2023-03-17T03:31:10.473Z,7.55
2023-03-17T03:32:10.177Z,7.52
2023-03-17T03:33:09.938Z,7.52
2023-03-17T03:34:10.250Z,7.49
2023-03-17T03:35:10.055Z,7.48
2023-03-17T03:36:10.378Z,7.46
2023-03-17T03:37:10.090Z,7.46
2023-03-17T03:38:09.880Z,7.45
2023-03-17T03:39:30.325Z,7.42
2023-03-17T03:40:10.004Z,7.43
2023-03-17T03:41:10.266Z,7.42
2023-03-17T03:42:10.030Z,7.40
2023-03-17T03:43:21.849Z,7.40
2023-03-17T03:44:11.085Z,7.40
2023-03-17T03:45:09.851Z,7.39
2023-03-17T03:46:10.189Z,7.37
2023-03-17T03:47:09.932Z,7.37
2023-03-17T03:48:10.221Z,7.37
2023-03-17T03:49:30.028Z,7.37
2023-03-17T03:50:09.758Z,7.37
2023-03-17T03:51:10.068Z,7.34
2023-03-17T03:52:09.857Z,7.34
2023-03-17T03:53:10.135Z,7.37
2023-03-17T03:54:09.927Z,7.35
2023-03-17T03:55:10.723Z,7.34
2023-03-17T03:56:10.008Z,7.34
2023-03-17T03:57:09.754Z,7.35
2023-03-17T03:58:09.985Z,7.34
2023-03-17T03:59:29.744Z,7.34
2023-03-17T04:00:10.009Z,7.31
2023-03-17T04:01:09.751Z,7.30
2023-03-17T04:02:10.014Z,7.25
2023-03-17T04:03:09.768Z,7.24
2023-03-17T04:04:10.014Z,7.23
2023-03-17T04:05:09.769Z,7.20
2023-03-17T04:06:10.025Z,7.17
2023-03-17T04:07:09.769Z,7.15
2023-03-17T04:08:09.531Z,7.13
2023-03-17T04:09:29.796Z,7.10
2023-03-17T04:10:09.527Z,7.10
2023-03-17T04:11:09.792Z,7.09
2023-03-17T04:12:09.550Z,7.07
2023-03-17T04:13:09.804Z,7.07
2023-03-17T04:14:09.565Z,7.07
2023-03-17T04:15:09.806Z,7.05
2023-03-17T04:16:09.644Z,7.05
2023-03-17T04:17:09.832Z,7.06
2023-03-17T04:18:09.599Z,7.06
2023-03-17T04:19:29.860Z,7.06
2023-03-17T04:20:09.575Z,7.06
2023-03-17T04:21:09.818Z,7.07
2023-03-17T04:22:09.575Z,7.06
2023-03-17T04:23:09.801Z,7.05
2023-03-17T04:24:09.576Z,7.05
2023-03-17T04:25:09.325Z,7.03
2023-03-17T04:26:09.596Z,7.03
2023-03-17T04:27:09.317Z,7.02
2023-03-17T04:28:09.581Z,7.02
2023-03-17T04:29:29.333Z,7.03
2023-03-17T04:30:09.556Z,7.02
2023-03-17T04:31:09.306Z,7.02
2023-03-17T04:32:09.589Z,7.02
2023-03-17T04:33:09.359Z,6.99
2023-03-17T04:34:09.591Z,6.99
2023-03-17T04:35:09.335Z,7.03
2023-03-17T04:36:09.681Z,7.05
2023-03-17T04:37:09.325Z,7.06
2023-03-17T04:38:09.606Z,7.06
2023-03-17T04:39:29.336Z,7.07
2023-03-17T04:40:09.577Z,7.06
2023-03-17T04:41:09.333Z,7.07
2023-03-17T04:42:09.589Z,7.09
2023-03-17T04:43:09.357Z,7.10
2023-03-17T04:44:09.584Z,7.12
2023-03-17T04:45:09.341Z,7.12
2023-03-17T04:46:09.672Z,7.15
2023-03-17T04:47:09.330Z,7.12
2023-03-17T04:48:09.616Z,7.15
2023-03-17T04:49:29.856Z,7.15
2023-03-17T04:50:10.604Z,7.15
2023-03-17T04:51:11.650Z,7.13
2023-03-17T04:52:09.178Z,7.15
2023-03-17T04:53:09.427Z,7.16
2023-03-17T04:54:09.160Z,7.16
2023-03-17T04:55:09.434Z,7.15
2023-03-17T04:56:09.150Z,7.16
2023-03-17T04:57:10.392Z,7.15
2023-03-17T04:58:10.380Z,7.13
2023-03-17T04:59:29.430Z,7.15
2023-03-17T05:00:09.137Z,7.15
2023-03-17T05:01:09.420Z,7.15
2023-03-17T05:02:09.174Z,7.16
2023-03-17T05:03:25.755Z,7.17
2023-03-17T05:04:14.566Z,7.21
2023-03-17T05:05:10.414Z,7.21
2023-03-17T05:06:09.142Z,7.21
2023-03-17T05:07:09.009Z,7.21
2023-03-17T05:08:09.149Z,7.21
2023-03-17T05:09:29.421Z,7.23
2023-03-17T05:10:09.141Z,7.23
2023-03-17T05:11:09.904Z,7.24
2023-03-17T05:12:09.138Z,7.25
2023-03-17T05:13:08.894Z,7.27
2023-03-17T05:14:09.170Z,7.27
2023-03-17T05:15:08.892Z,7.27
2023-03-17T05:16:09.188Z,7.27
2023-03-17T05:17:08.888Z,7.27
2023-03-17T05:18:09.136Z,7.25
2023-03-17T05:19:28.939Z,7.25
2023-03-17T05:20:09.167Z,7.24
2023-03-17T05:21:08.896Z,7.24
2023-03-17T05:22:09.136Z,7.23
2023-03-17T05:23:09.739Z,7.23
2023-03-17T05:24:09.166Z,7.21
2023-03-17T05:25:08.898Z,7.21
2023-03-17T05:26:09.148Z,7.21
2023-03-17T05:27:08.912Z,7.21
2023-03-17T05:28:09.159Z,7.21
2023-03-17T05:29:28.949Z,7.23
2023-03-17T05:30:08.669Z,7.25
2023-03-17T05:31:10.979Z,7.25
2023-03-17T05:32:08.696Z,7.27
2023-03-17T05:33:08.961Z,7.27
2023-03-17T05:34:08.724Z,7.28
2023-03-17T05:35:08.967Z,7.31
2023-03-17T05:36:08.756Z,7.32
2023-03-17T05:37:08.968Z,7.34
2023-03-17T05:38:09.728Z,7.35
2023-03-17T05:39:28.987Z,7.34
2023-03-17T05:40:08.726Z,7.35
2023-03-17T05:41:08.958Z,7.37
2023-03-17T05:42:08.710Z,7.40
2023-03-17T05:43:08.963Z,7.37
2023-03-17T05:44:08.737Z,7.39
2023-03-17T05:45:08.983Z,7.40
2023-03-17T05:46:08.834Z,7.40
2023-03-17T05:47:09.007Z,7.40
2023-03-17T05:48:08.712Z,7.39
2023-03-17T05:49:29.003Z,7.40
2023-03-17T05:50:08.717Z,7.37
2023-03-17T05:51:08.501Z,7.39
2023-03-17T05:52:08.752Z,7.37
2023-03-17T05:53:08.509Z,7.37
2023-03-17T05:54:08.771Z,7.35
2023-03-17T05:55:08.550Z,7.37
2023-03-17T05:56:09.691Z,7.34
2023-03-17T05:57:08.511Z,7.32
2023-03-17T05:58:08.788Z,7.35
2023-03-17T05:59:28.518Z,7.34
2023-03-17T06:00:11.700Z,7.34
2023-03-17T06:01:09.482Z,7.32
2023-03-17T06:02:09.838Z,7.32
2023-03-17T06:03:09.529Z,7.34
2023-03-17T06:04:08.781Z,7.35
2023-03-17T06:05:09.505Z,7.37
2023-03-17T06:06:09.299Z,7.40
2023-03-17T06:07:09.510Z,7.40
2023-03-17T06:08:08.339Z,7.42
2023-03-17T06:09:28.591Z,7.42
2023-03-17T06:10:09.277Z,7.43
2023-03-17T06:11:08.575Z,7.42
2023-03-17T06:12:09.365Z,7.42
2023-03-17T06:13:08.594Z,7.45
2023-03-17T06:14:08.336Z,7.45
2023-03-17T06:15:08.611Z,7.46
2023-03-17T06:16:08.470Z,7.46
2023-03-17T06:17:08.632Z,7.48
2023-03-17T06:18:08.330Z,7.48
2023-03-17T06:19:28.614Z,7.50
2023-03-17T06:20:08.345Z,7.49
2023-03-17T06:21:09.583Z,7.50
2023-03-17T06:22:09.328Z,7.50
2023-03-17T06:23:09.076Z,7.52
2023-03-17T06:24:09.312Z,7.53
2023-03-17T06:25:09.090Z,7.55
2023-03-17T06:26:09.340Z,7.58
2023-03-17T06:27:09.223Z,7.61
2023-03-17T06:28:09.360Z,7.61
2023-03-17T06:29:28.539Z,7.64
2023-03-17T06:30:08.468Z,7.64
2023-03-17T06:31:09.292Z,7.69
2023-03-17T06:32:19.968Z,7.71
2023-03-17T06:33:09.416Z,7.74
2023-03-17T06:34:08.976Z,7.74
2023-03-17T06:35:09.219Z,7.75
2023-03-17T06:36:09.052Z,7.80
2023-03-17T06:37:09.246Z,7.82
2023-03-17T06:38:08.989Z,7.83
2023-03-17T06:39:28.311Z,7.86
2023-03-17T06:40:08.984Z,7.86
2023-03-17T06:41:09.239Z,7.89
2023-03-17T06:42:08.994Z,7.92
2023-03-17T06:43:09.260Z,7.93
2023-03-17T06:44:08.996Z,7.97
2023-03-17T06:45:09.257Z,8.00
2023-03-17T06:46:09.056Z,8.01
2023-03-17T06:47:09.251Z,8.02
2023-03-17T06:48:09.012Z,8.05
2023-03-17T06:49:28.339Z,8.11
2023-03-17T06:50:09.015Z,8.12
2023-03-17T06:51:09.289Z,8.18
2023-03-17T06:52:09.092Z,8.19
2023-03-17T06:53:08.809Z,8.25
2023-03-17T06:54:09.073Z,8.26
2023-03-17T06:55:08.818Z,8.29
2023-03-17T06:56:20.038Z,8.36
2023-03-17T06:57:08.917Z,8.37
2023-03-17T06:58:09.080Z,8.43
2023-03-17T06:59:27.902Z,8.45
2023-03-17T07:00:08.199Z,8.45
2023-03-17T07:01:08.980Z,8.50
2023-03-17T07:02:08.932Z,8.52
2023-03-17T07:03:08.972Z,8.55
2023-03-17T07:04:08.779Z,8.59
2023-03-17T07:05:08.045Z,8.59
2023-03-17T07:06:07.174Z,8.59
2023-03-17T07:07:08.164Z,8.62
2023-03-17T07:08:07.219Z,8.65
2023-03-17T07:09:27.192Z,8.70
2023-03-17T07:10:08.083Z,8.70
2023-03-17T07:11:07.351Z,8.71
2023-03-17T07:12:08.060Z,8.74
2023-03-17T07:13:08.107Z,8.76
2023-03-17T07:14:08.556Z,8.80
2023-03-17T07:15:07.330Z,8.83
2023-03-17T07:16:08.089Z,8.86
2023-03-17T07:17:08.635Z,8.91
2023-03-17T07:18:08.001Z,8.94
2023-03-17T07:19:27.118Z,9.01
2023-03-17T07:20:08.966Z,9.02
2023-03-17T07:21:08.772Z,9.11
2023-03-17T07:22:08.566Z,9.18
2023-03-17T07:23:09.819Z,9.24
2023-03-17T07:24:08.551Z,9.31
2023-03-17T07:25:10.341Z,9.35
2023-03-17T07:26:08.557Z,9.42
2023-03-17T07:27:08.847Z,9.48
2023-03-17T07:28:08.599Z,9.54
2023-03-17T07:29:27.882Z,9.64
2023-03-17T07:30:07.860Z,9.66
2023-03-17T07:31:09.713Z,9.68
2023-03-17T07:32:08.379Z,9.71
2023-03-17T07:33:08.649Z,9.74
2023-03-17T07:34:08.331Z,9.76
2023-03-17T07:35:09.594Z,9.83
2023-03-17T07:36:07.474Z,9.89
2023-03-17T07:37:08.637Z,9.91
2023-03-17T07:38:08.383Z,9.93
2023-03-17T07:39:29.249Z,9.94
2023-03-17T07:40:08.497Z,9.97
2023-03-17T07:41:08.310Z,9.96
2023-03-17T07:42:08.599Z,9.97
2023-03-17T07:43:08.298Z,9.97
2023-03-17T07:44:08.497Z,9.99
2023-03-17T07:45:08.276Z,10.07
2023-03-17T07:46:08.674Z,10.14
2023-03-17T07:47:08.400Z,10.17
2023-03-17T07:48:08.548Z,10.25
2023-03-17T07:49:40.820Z,10.29
2023-03-17T07:50:09.631Z,10.33
2023-03-17T07:51:08.373Z,10.40
2023-03-17T07:52:08.225Z,10.45
2023-03-17T07:53:08.513Z,10.44
2023-03-17T07:54:08.248Z,10.51
2023-03-17T07:55:08.577Z,10.47
2023-03-17T07:56:09.278Z,10.53
2023-03-17T07:57:09.236Z,10.60
2023-03-17T07:58:08.445Z,10.67
2023-03-17T07:59:27.257Z,10.74
2023-03-17T08:00:07.542Z,10.76
2023-03-17T08:01:08.363Z,10.82
2023-03-17T08:02:08.120Z,10.85
2023-03-17T08:03:10.792Z,10.89
2023-03-17T08:04:09.218Z,10.99
2023-03-17T08:05:07.504Z,11.06
2023-03-17T08:06:08.247Z,11.09
2023-03-17T08:07:08.510Z,11.15
2023-03-17T08:08:08.339Z,11.22
2023-03-17T08:09:27.226Z,11.28
2023-03-17T08:10:07.450Z,11.28
2023-03-17T08:11:08.180Z,11.29
2023-03-17T08:12:08.032Z,11.32
2023-03-17T08:13:08.192Z,11.36
2023-03-17T08:14:07.949Z,11.43
2023-03-17T08:15:08.220Z,11.49
2023-03-17T08:16:08.006Z,11.54
2023-03-17T08:17:08.353Z,11.65
2023-03-17T08:18:07.992Z,11.76
2023-03-17T08:19:27.305Z,11.94
2023-03-17T08:20:07.964Z,11.98
2023-03-17T08:21:08.235Z,12.01
2023-03-17T08:22:07.999Z,12.10
2023-03-17T08:23:08.259Z,12.17
2023-03-17T08:24:07.983Z,12.34
2023-03-17T08:25:08.384Z,12.46
2023-03-17T08:26:08.023Z,12.60
2023-03-17T08:27:08.260Z,12.74
2023-03-17T08:28:08.028Z,12.93
2023-03-17T08:29:27.372Z,13.17
2023-03-17T08:30:08.041Z,13.29
2023-03-17T08:31:10.263Z,13.49
2023-03-17T08:32:08.026Z,13.62
2023-03-17T08:33:07.822Z,13.69
2023-03-17T08:34:08.042Z,13.78
2023-03-17T08:35:08.215Z,13.91
2023-03-17T08:36:07.973Z,13.99
2023-03-17T08:37:10.164Z,13.92
2023-03-17T08:38:07.982Z,13.97
2023-03-17T08:39:26.806Z,13.99
2023-03-17T08:40:07.997Z,14.04
2023-03-17T08:41:07.766Z,14.09
2023-03-17T08:42:07.988Z,14.15
2023-03-17T08:43:07.778Z,14.18
2023-03-17T08:44:08.009Z,14.36
2023-03-17T08:45:07.129Z,14.52
2023-03-17T08:46:08.043Z,14.73
2023-03-17T08:47:07.783Z,14.98
2023-03-17T08:48:07.886Z,15.28
2023-03-17T08:49:26.731Z,15.51
2023-03-17T08:50:07.914Z,15.65
2023-03-17T08:51:07.547Z,15.74
2023-03-17T08:52:07.931Z,15.80
2023-03-17T08:53:07.670Z,15.87
2023-03-17T08:54:07.975Z,15.97
2023-03-17T08:55:07.688Z,16.02
2023-03-17T08:56:07.974Z,16.23
2023-03-17T08:57:07.796Z,16.23
2023-03-17T08:58:08.494Z,16.38
2023-03-17T08:59:26.830Z,16.48
2023-03-17T09:00:07.514Z,16.58
2023-03-17T09:01:07.769Z,16.78
2023-03-17T09:02:07.653Z,17.00
2023-03-17T09:03:07.785Z,17.14
2023-03-17T09:04:07.540Z,17.48
2023-03-17T09:05:08.777Z,17.81
2023-03-17T09:06:07.653Z,17.89
2023-03-17T09:07:09.690Z,18.05
2023-03-17T09:08:07.687Z,18.48
2023-03-17T09:09:26.937Z,18.69
2023-03-17T09:10:07.642Z,18.48
2023-03-17T09:11:07.492Z,18.08
2023-03-17T09:12:07.740Z,18.00
2023-03-17T09:13:07.489Z,18.08
2023-03-17T09:14:07.774Z,18.15
2023-03-17T09:15:07.520Z,18.32
2023-03-17T09:16:07.385Z,18.41
2023-03-17T09:17:07.531Z,18.58
2023-03-17T09:18:07.313Z,18.73
2023-03-17T09:19:26.612Z,18.65
2023-03-17T09:20:06.755Z,18.52
2023-03-17T09:21:07.509Z,18.45
2023-03-17T09:22:07.280Z,18.21
2023-03-17T09:23:07.544Z,17.97
2023-03-17T09:24:07.400Z,17.56
2023-03-17T09:25:07.591Z,17.31
2023-03-17T09:26:07.396Z,17.14
2023-03-17T09:27:07.650Z,16.98
2023-03-17T09:28:07.417Z,16.85
2023-03-17T09:29:26.762Z,16.79
2023-03-17T09:30:06.653Z,16.73
2023-03-17T09:31:07.383Z,16.88
2023-03-17T09:32:07.157Z,17.07
2023-03-17T09:33:07.413Z,17.40
2023-03-17T09:34:07.168Z,17.90
2023-03-17T09:35:07.417Z,18.45
2023-03-17T09:36:07.284Z,19.18
2023-03-17T09:37:07.458Z,20.35
2023-03-17T09:38:07.221Z,21.52
2023-03-17T09:39:26.543Z,22.49
2023-03-17T09:40:08.239Z,22.35
2023-03-17T09:41:07.492Z,22.21
2023-03-17T09:42:07.248Z,22.24
2023-03-17T09:43:07.017Z,21.65
2023-03-17T09:44:07.271Z,21.94
2023-03-17T09:45:06.464Z,21.67
2023-03-17T09:46:07.538Z,21.21
2023-03-17T09:47:07.004Z,20.85
2023-03-17T09:48:07.265Z,20.38
2023-03-17T09:49:26.098Z,20.18
2023-03-17T09:50:06.446Z,20.06
2023-03-17T09:51:07.212Z,20.20
2023-03-17T09:52:06.996Z,20.47
2023-03-17T09:53:07.211Z,20.87
2023-03-17T09:54:07.006Z,21.44
2023-03-17T09:55:07.233Z,21.92
2023-03-17T09:56:07.012Z,22.27
2023-03-17T09:57:07.262Z,23.07
2023-03-17T09:58:07.013Z,23.90
2023-03-17T09:59:26.323Z,24.47
2023-03-17T10:00:06.329Z,24.71
2023-03-17T10:01:07.075Z,24.83
2023-03-17T10:02:06.999Z,25.13
2023-03-17T10:03:07.105Z,24.96
2023-03-17T10:04:06.857Z,24.84
2023-03-17T10:05:07.134Z,24.95
2023-03-17T10:06:08.389Z,24.67
2023-03-17T10:07:07.132Z,24.58
2023-03-17T10:08:18.958Z,24.13
2023-03-17T10:09:27.343Z,23.28
2023-03-17T10:10:06.301Z,22.82
2023-03-17T10:11:06.111Z,22.20
2023-03-17T10:12:06.977Z,21.64
2023-03-17T10:13:07.070Z,21.16
2023-03-17T10:14:05.882Z,20.76
2023-03-17T10:15:07.103Z,20.32
2023-03-17T10:16:06.885Z,20.24
2023-03-17T10:17:06.183Z,20.29
2023-03-17T10:18:06.866Z,20.29
2023-03-17T10:19:26.220Z,20.59
2023-03-17T10:20:06.892Z,20.61
2023-03-17T10:21:05.694Z,20.76
2023-03-17T10:22:07.043Z,20.99
2023-03-17T10:23:06.643Z,21.07
2023-03-17T10:24:06.900Z,20.62
2023-03-17T10:25:06.660Z,20.36
2023-03-17T10:26:06.918Z,20.32
2023-03-17T10:27:06.737Z,20.31
2023-03-17T10:28:08.939Z,20.36
2023-03-17T10:29:25.775Z,20.24
2023-03-17T10:30:06.008Z,20.11
2023-03-17T10:31:06.814Z,20.32
2023-03-17T10:32:06.548Z,20.55
2023-03-17T10:33:06.942Z,20.74
2023-03-17T10:34:06.569Z,20.64
2023-03-17T10:35:06.805Z,20.70
2023-03-17T10:36:07.046Z,20.87
2023-03-17T10:37:06.881Z,21.10
2023-03-17T10:38:14.293Z,20.88
2023-03-17T10:39:27.027Z,21.34
2023-03-17T10:40:06.573Z,21.68
2023-03-17T10:41:06.819Z,22.15
2023-03-17T10:42:06.578Z,22.46
2023-03-17T10:43:06.810Z,22.88
2023-03-17T10:44:06.594Z,23.35
2023-03-17T10:45:06.842Z,23.22
2023-03-17T10:46:06.611Z,22.91
2023-03-17T10:47:06.453Z,22.73
2023-03-17T10:48:07.624Z,23.23
2023-03-17T10:49:25.453Z,23.87
2023-03-17T10:50:05.822Z,24.05
2023-03-17T10:51:06.567Z,24.46
2023-03-17T10:52:06.363Z,24.81
2023-03-17T10:53:06.642Z,24.50
2023-03-17T10:54:06.356Z,24.00
2023-03-17T10:55:06.615Z,23.32
2023-03-17T10:56:06.365Z,22.88
2023-03-17T10:57:06.633Z,22.57
2023-03-17T10:58:06.350Z,22.14
2023-03-17T10:59:25.778Z,21.96
2023-03-17T11:00:05.733Z,22.10
2023-03-17T11:01:06.498Z,22.07
2023-03-17T11:02:06.230Z,22.79
2023-03-17T11:03:06.489Z,23.27
2023-03-17T11:04:06.265Z,24.08
2023-03-17T11:05:39.051Z,24.80
2023-03-17T11:06:06.257Z,25.20
2023-03-17T11:07:06.558Z,25.51
2023-03-17T11:08:07.309Z,25.97
2023-03-17T11:09:25.665Z,26.55
2023-03-17T11:10:06.360Z,26.73
2023-03-17T11:11:06.625Z,27.02
2023-03-17T11:12:06.483Z,27.12
2023-03-17T11:13:06.167Z,27.17
2023-03-17T11:14:06.407Z,27.40
2023-03-17T11:15:06.154Z,27.74
2023-03-17T11:16:06.477Z,27.88
2023-03-17T11:17:06.306Z,28.02
2023-03-17T11:18:06.402Z,28.09
2023-03-17T11:19:25.215Z,28.40
2023-03-17T11:20:05.601Z,28.59
2023-03-17T11:21:06.313Z,28.48
2023-03-17T11:22:06.028Z,28.43
2023-03-17T11:23:08.867Z,28.48
2023-03-17T11:25:41.118Z,28.36
2023-03-17T11:25:47.415Z,28.74
2023-03-17T11:27:24.714Z,29.08
2023-03-17T11:27:47.453Z,29.30
2023-03-17T11:38:52.487Z,29.55
2023-03-17T11:40:50.154Z,30.67
2023-03-17T11:40:56.566Z,30.19
2023-03-17T11:42:21.839Z,30.29
2023-03-17T11:45:21.092Z,30.43
2023-03-17T11:45:25.911Z,30.46
2023-03-17T11:46:28.239Z,30.51
2023-03-17T11:48:09.101Z,30.43
2023-03-17T11:48:26.679Z,30.57
2023-03-17T11:50:05.258Z,30.82
2023-03-17T11:50:26.677Z,30.84
2023-03-17T11:51:47.134Z,30.61
2023-03-17T11:52:26.736Z,30.64
2023-03-17T11:53:26.464Z,30.19
2023-03-17T11:54:26.750Z,30.22
2023-03-17T11:55:26.487Z,30.23
2023-03-17T11:56:26.765Z,30.27
2023-03-17T11:57:26.491Z,30.24
2023-03-17T11:58:26.771Z,30.34
2023-03-17T11:59:26.530Z,30.24
2023-03-17T12:00:26.305Z,30.24
2023-03-17T12:01:47.131Z,29.94
2023-03-17T12:02:26.366Z,29.67
2023-03-17T12:03:26.729Z,29.23
2023-03-17T12:04:26.444Z,28.66
2023-03-17T12:05:26.647Z,28.18
2023-03-17T12:06:26.414Z,27.72
2023-03-17T12:07:26.662Z,27.74
2023-03-17T12:08:26.437Z,27.18
2023-03-17T12:09:28.188Z,26.77
2023-03-17T12:10:26.446Z,26.44
2023-03-17T12:11:47.758Z,26.06
2023-03-17T12:12:26.546Z,26.01
2023-03-17T12:13:26.297Z,25.85
2023-03-17T12:14:26.561Z,25.62
2023-03-17T12:15:26.332Z,25.79
2023-03-17T12:16:27.540Z,25.60
2023-03-17T12:17:27.354Z,25.40
2023-03-17T12:18:26.584Z,25.38
2023-03-17T12:19:26.308Z,25.32
2023-03-17T12:20:26.579Z,25.23
2023-03-17T12:21:47.817Z,24.99
2023-03-17T12:22:26.131Z,24.85
2023-03-17T12:23:26.382Z,24.69
2023-03-17T12:24:26.158Z,24.52
2023-03-17T12:25:26.404Z,24.43
2023-03-17T12:26:26.166Z,24.21
2023-03-17T12:27:26.403Z,23.88
2023-03-17T12:28:26.165Z,23.73
2023-03-17T12:29:26.406Z,23.57
2023-03-17T12:30:26.149Z,23.53
2023-03-17T12:31:47.150Z,23.48
2023-03-17T12:32:26.297Z,23.47
2023-03-17T12:33:25.985Z,23.48
2023-03-17T12:34:26.264Z,23.54
2023-03-17T12:35:26.043Z,23.50
2023-03-17T12:36:26.289Z,23.40
2023-03-17T12:37:26.030Z,23.47
2023-03-17T12:38:26.287Z,23.57
2023-03-17T12:39:26.031Z,23.68
2023-03-17T12:40:26.412Z,23.78
2023-03-17T12:41:47.527Z,24.16
2023-03-17T12:42:25.861Z,24.40
2023-03-17T12:43:26.122Z,24.58
2023-03-17T12:44:25.892Z,24.68
2023-03-17T12:45:26.149Z,24.77
2023-03-17T12:46:25.976Z,24.81
2023-03-17T12:47:26.145Z,24.83
2023-03-17T12:48:25.912Z,24.81
2023-03-17T12:49:26.169Z,24.73
2023-03-17T12:50:25.917Z,24.53
2023-03-17T12:51:46.899Z,24.30
2023-03-17T12:52:27.444Z,24.18
2023-03-17T12:53:25.795Z,24.08
2023-03-17T12:54:26.034Z,23.85
2023-03-17T12:55:25.791Z,23.78
2023-03-17T12:56:26.032Z,23.58
2023-03-17T12:57:25.788Z,23.42
2023-03-17T12:58:26.556Z,23.23
2023-03-17T12:59:25.812Z,23.15
2023-03-17T13:00:26.036Z,22.86
2023-03-17T13:01:47.365Z,22.72
2023-03-17T13:02:25.640Z,22.75
2023-03-17T13:03:25.941Z,22.60
2023-03-17T13:04:27.156Z,22.57
2023-03-17T13:05:25.896Z,22.47
2023-03-17T13:06:25.700Z,22.21
2023-03-17T13:07:25.956Z,22.02
2023-03-17T13:08:25.728Z,21.96
2023-03-17T13:09:25.986Z,21.91
2023-03-17T13:10:25.747Z,21.86
2023-03-17T13:11:47.072Z,21.91
2023-03-17T13:12:25.844Z,21.88
2023-03-17T13:13:25.621Z,21.84
2023-03-17T13:14:25.854Z,21.83
2023-03-17T13:15:25.657Z,21.74
2023-03-17T13:16:26.780Z,21.72
2023-03-17T13:17:25.786Z,21.74
2023-03-17T13:18:25.878Z,21.69
2023-03-17T13:19:25.646Z,21.50
2023-03-17T13:20:25.892Z,21.42